createdAt,value
2022-09-02T00:00:54.827Z,1.02
2022-09-02T00:03:21.846Z,1.17
2022-09-02T00:05:48.763Z,1.10
2022-09-02T00:08:15.495Z,1.00
2022-09-02T00:10:43.116Z,1.17
2022-09-02T00:13:10.523Z,1.13
2022-09-02T00:15:37.525Z,1.20
2022-09-02T00:18:04.480Z,1.00
2022-09-02T00:20:31.492Z,1.02
2022-09-02T00:22:58.259Z,1.13
2022-09-02T00:25:25.087Z,1.00
2022-09-02T00:27:51.797Z,1.00
2022-09-02T00:30:18.447Z,1.00
2022-09-02T00:32:45.097Z,1.45
2022-09-02T00:35:11.836Z,1.05
2022-09-02T00:37:38.627Z,0.90
2022-09-02T00:40:06.354Z,1.10
2022-09-02T00:42:33.616Z,1.02
2022-09-02T00:45:00.253Z,0.98
2022-09-02T00:47:26.946Z,0.80
2022-09-02T00:49:53.720Z,0.90
2022-09-02T00:52:32.666Z,0.88
2022-09-02T00:55:00.142Z,0.80
2022-09-02T00:57:29.388Z,1.25
2022-09-02T01:00:01.472Z,0.90
2022-09-02T01:02:28.191Z,1.10
2022-09-02T01:04:54.888Z,0.90
2022-09-02T01:07:21.913Z,1.10
2022-09-02T01:09:48.776Z,1.05
2022-09-02T01:12:15.395Z,1.20
2022-09-02T01:14:42.022Z,1.20
2022-09-02T01:17:08.665Z,1.08
2022-09-02T01:19:40.907Z,0.93
2022-09-02T01:22:25.042Z,1.00
2022-09-02T01:24:51.941Z,1.00
2022-09-02T01:27:21.060Z,1.20
2022-09-02T01:29:54.648Z,0.90
2022-09-02T01:32:21.904Z,1.10
2022-09-02T01:34:48.677Z,1.00
2022-09-02T01:37:15.288Z,0.98
2022-09-02T01:39:41.928Z,1.02
2022-09-02T01:42:08.729Z,1.10
2022-09-02T01:44:35.934Z,1.10
2022-09-02T01:47:02.696Z,1.05
2022-09-02T01:49:29.376Z,0.90
2022-09-02T01:51:59.958Z,0.95
2022-09-02T01:54:26.695Z,0.90
2022-09-02T01:56:54.706Z,0.93
2022-09-02T01:59:21.366Z,1.10
2022-09-02T02:01:48.120Z,1.10
2022-09-02T02:04:14.980Z,1.02
2022-09-02T02:06:42.651Z,1.17
2022-09-02T02:09:10.371Z,1.20
2022-09-02T02:11:37.034Z,1.10
2022-09-02T02:14:04.276Z,1.20
2022-09-02T02:16:31.015Z,1.10
2022-09-02T02:18:58.209Z,1.20
2022-09-02T02:21:25.021Z,0.82
2022-09-02T02:23:51.695Z,1.20
2022-09-02T02:26:18.386Z,1.05
2022-09-02T02:28:47.134Z,1.20
2022-09-02T02:31:13.965Z,1.10
2022-09-02T02:33:40.654Z,1.15
2022-09-02T02:36:07.758Z,1.35
2022-09-02T02:38:34.805Z,1.10
2022-09-02T02:41:01.410Z,1.15
2022-09-02T02:43:28.135Z,1.00
2022-09-02T02:45:54.903Z,1.00
2022-09-02T02:48:22.529Z,1.02
2022-09-02T02:50:49.234Z,1.30
2022-09-02T02:53:16.008Z,1.38
2022-09-02T02:55:42.754Z,1.05
2022-09-02T02:58:09.921Z,1.20
2022-09-02T03:00:36.600Z,1.17
2022-09-02T03:03:05.582Z,1.00
2022-09-02T03:05:32.400Z,0.98
2022-09-02T03:07:59.105Z,1.13
2022-09-02T03:10:25.852Z,0.85
2022-09-02T03:12:52.537Z,1.27
2022-09-02T03:15:19.508Z,1.00
2022-09-02T03:17:47.040Z,1.10
2022-09-02T03:20:14.077Z,1.10
2022-09-02T03:22:40.649Z,1.27
2022-09-02T03:25:07.867Z,1.10
2022-09-02T03:27:34.622Z,1.00
2022-09-02T03:30:01.401Z,1.17
2022-09-02T03:32:28.231Z,1.10
2022-09-02T03:34:57.436Z,1.10
2022-09-02T03:37:24.208Z,1.10
2022-09-02T03:39:50.919Z,1.02
2022-09-02T03:42:19.598Z,1.08
2022-09-02T03:44:46.695Z,1.10
2022-09-02T03:47:13.324Z,1.08
2022-09-02T03:49:40.053Z,1.30
2022-09-02T03:52:10.544Z,1.13
2022-09-02T03:54:37.205Z,1.30
2022-09-02T03:57:04.142Z,1.10
2022-09-02T03:59:30.908Z,1.10
2022-09-02T04:01:57.736Z,1.20
2022-09-02T04:04:24.465Z,1.10
2022-09-02T04:06:51.132Z,1.20
2022-09-02T04:09:17.791Z,1.00
2022-09-02T04:11:44.400Z,1.10
2022-09-02T04:14:11.049Z,0.90
2022-09-02T04:16:37.997Z,0.90
2022-09-02T04:19:04.900Z,1.30
2022-09-02T04:21:37.177Z,1.25
2022-09-02T04:24:05.262Z,1.10
2022-09-02T04:26:31.989Z,1.00
2022-09-02T04:28:58.848Z,1.20
2022-09-02T04:31:25.823Z,1.00
2022-09-02T04:33:52.859Z,1.20
2022-09-02T04:36:19.892Z,0.98
2022-09-02T04:38:47.801Z,1.00
2022-09-02T04:41:16.853Z,1.08
2022-09-02T04:43:43.521Z,1.00
2022-09-02T04:46:12.889Z,1.02
2022-09-02T04:48:40.168Z,1.10
2022-09-02T04:51:11.081Z,1.02
2022-09-02T04:53:39.315Z,1.17
2022-09-02T04:56:07.637Z,1.00
2022-09-02T04:58:34.483Z,1.30
2022-09-02T05:01:09.061Z,1.20
2022-09-02T05:03:36.815Z,1.10
2022-09-02T05:06:05.940Z,1.00
2022-09-02T05:08:32.888Z,1.13
2022-09-02T05:10:59.697Z,1.13
2022-09-02T05:13:26.716Z,1.08
2022-09-02T05:15:53.485Z,1.05
2022-09-02T05:18:20.208Z,1.20
2022-09-02T05:20:47.023Z,1.23
2022-09-02T05:23:13.848Z,1.17
2022-09-02T05:25:40.919Z,1.13
2022-09-02T05:28:07.853Z,1.23
2022-09-02T05:30:35.990Z,1.40
2022-09-02T05:33:02.688Z,1.10
2022-09-02T05:35:29.748Z,1.20
2022-09-02T05:38:00.806Z,1.40
2022-09-02T05:40:28.840Z,1.23
2022-09-02T05:42:55.712Z,1.00
2022-09-02T05:45:22.415Z,0.93
2022-09-02T05:47:49.500Z,1.02
2022-09-02T05:50:16.210Z,1.30
2022-09-02T05:52:42.933Z,0.98
2022-09-02T05:55:09.704Z,1.02
2022-09-02T05:57:36.384Z,1.40
2022-09-02T06:00:05.314Z,1.20
2022-09-02T06:02:32.123Z,0.98
2022-09-02T06:04:58.812Z,1.33
2022-09-02T06:07:25.627Z,1.33
2022-09-02T06:09:52.441Z,1.00
2022-09-02T06:12:19.181Z,1.30
2022-09-02T06:14:46.858Z,1.50
2022-09-02T06:17:14.527Z,1.10
2022-09-02T06:19:41.294Z,1.40
2022-09-02T06:22:09.894Z,1.17
2022-09-02T06:24:38.238Z,0.90
2022-09-02T06:27:05.072Z,1.02
2022-09-02T06:29:31.776Z,1.00
2022-09-02T06:31:58.756Z,1.25
2022-09-02T06:34:25.820Z,1.00
2022-09-02T06:36:53.174Z,1.30
2022-09-02T06:39:21.087Z,1.27
2022-09-02T06:41:48.878Z,1.35
2022-09-02T06:44:15.623Z,1.40
2022-09-02T06:46:44.359Z,1.00
2022-09-02T06:49:11.436Z,0.93
2022-09-02T06:51:40.885Z,1.08
2022-09-02T06:54:08.976Z,1.30
2022-09-02T06:56:36.513Z,1.50
2022-09-02T06:59:03.368Z,1.23
2022-09-02T07:01:31.270Z,1.30
2022-09-02T07:03:58.509Z,1.27
2022-09-02T07:06:25.320Z,1.10
2022-09-02T07:08:52.148Z,1.20
2022-09-02T07:11:21.000Z,1.00
2022-09-02T07:13:48.068Z,1.30
2022-09-02T07:16:14.956Z,1.00
2022-09-02T07:18:49.576Z,1.10
2022-09-02T07:21:16.710Z,1.10
2022-09-02T07:23:44.071Z,1.02
2022-09-02T07:26:17.343Z,1.10
2022-09-02T07:28:44.190Z,0.90
2022-09-02T07:31:11.178Z,0.98
2022-09-02T07:33:38.160Z,1.10
2022-09-02T07:36:05.521Z,1.13
2022-09-02T07:38:38.113Z,1.10
2022-09-02T07:41:04.964Z,1.55
2022-09-02T07:43:32.077Z,1.15
2022-09-02T07:45:58.973Z,1.10
2022-09-02T07:48:25.782Z,1.00
2022-09-02T07:50:52.848Z,0.90
2022-09-02T07:53:19.799Z,0.90
2022-09-02T07:55:46.599Z,0.80
2022-09-02T07:58:16.018Z,1.00
2022-09-02T08:00:43.258Z,0.98
2022-09-02T08:03:10.286Z,0.90
2022-09-02T08:05:37.773Z,0.80
2022-09-02T08:08:04.885Z,1.00
2022-09-02T08:10:31.668Z,0.90
2022-09-02T08:12:58.669Z,0.80
2022-09-02T08:15:27.746Z,0.80
2022-09-02T08:17:55.537Z,0.80
2022-09-02T08:20:22.925Z,0.82
2022-09-02T08:22:56.026Z,0.80
2022-09-02T08:25:33.874Z,0.60
2022-09-02T08:28:00.575Z,0.80
2022-09-02T08:30:27.458Z,0.65
2022-09-02T08:32:54.244Z,0.80
2022-09-02T08:35:21.128Z,0.80
2022-09-02T08:37:47.945Z,0.80
2022-09-02T08:40:19.638Z,0.90
2022-09-02T08:42:52.007Z,0.88
2022-09-02T08:45:21.367Z,0.80
2022-09-02T08:47:54.194Z,0.77
2022-09-02T08:50:21.184Z,0.80
2022-09-02T08:53:16.657Z,0.70
2022-09-02T08:55:46.107Z,0.70
2022-09-02T08:58:18.171Z,0.70
2022-09-02T09:00:46.503Z,0.70
2022-09-02T09:03:23.226Z,0.60
2022-09-02T09:05:56.103Z,0.73
2022-09-02T09:08:26.875Z,0.73
2022-09-02T09:11:01.388Z,0.60
2022-09-02T09:13:46.073Z,0.57
2022-09-02T09:16:18.882Z,0.77
2022-09-02T09:19:13.180Z,0.73
2022-09-02T09:21:40.442Z,0.60
2022-09-02T09:24:14.875Z,0.68
2022-09-02T09:26:41.599Z,0.60
2022-09-02T09:29:08.883Z,0.70
2022-09-02T09:31:35.739Z,0.70
2022-09-02T09:34:10.896Z,0.75
2022-09-02T09:36:40.673Z,0.50
2022-09-02T09:39:20.779Z,0.70
2022-09-02T09:41:48.205Z,0.77
2022-09-02T09:44:43.732Z,0.70
2022-09-02T09:47:21.121Z,0.63
2022-09-02T09:49:49.127Z,0.57
2022-09-02T09:52:42.285Z,0.50
2022-09-02T09:55:13.561Z,0.63
2022-09-02T09:57:41.866Z,0.55
2022-09-02T10:00:20.836Z,0.60
2022-09-02T10:02:52.014Z,0.60
2022-09-02T10:05:24.906Z,0.50
2022-09-02T10:08:19.098Z,0.50
2022-09-02T10:11:02.924Z,0.52
2022-09-02T10:13:31.361Z,0.60
2022-09-02T10:16:01.161Z,0.60
2022-09-02T10:18:49.064Z,0.75
2022-09-02T10:21:34.761Z,0.70
2022-09-02T10:24:20.700Z,0.45
2022-09-02T10:26:48.646Z,0.50
2022-09-02T10:29:34.465Z,0.60
2022-09-02T10:32:13.367Z,0.60
2022-09-02T10:35:09.544Z,0.50
2022-09-02T10:37:45.194Z,0.60
2022-09-02T10:40:15.390Z,0.60
2022-09-02T10:43:11.350Z,0.60
2022-09-02T10:45:41.088Z,0.50
2022-09-02T10:48:32.173Z,0.65
2022-09-02T10:51:27.068Z,0.80
2022-09-02T10:54:18.631Z,0.60
2022-09-02T10:57:16.609Z,0.40
2022-09-02T10:59:54.073Z,0.50
2022-09-02T11:02:22.251Z,0.60
2022-09-02T11:04:59.169Z,0.47
2022-09-02T11:07:28.973Z,0.63
2022-09-02T11:10:17.712Z,0.40
2022-09-02T11:12:51.094Z,0.50
2022-09-02T11:15:18.817Z,0.50
2022-09-02T11:17:54.577Z,0.40
2022-09-02T11:20:36.766Z,0.50
2022-09-02T11:23:05.989Z,0.50
2022-09-02T11:25:33.166Z,0.50
2022-09-02T11:28:27.298Z,0.60
2022-09-02T11:31:19.765Z,0.60
2022-09-02T11:36:33.627Z,0.68
2022-09-02T11:39:30.668Z,0.60
2022-09-02T11:42:15.733Z,0.60
2022-09-02T11:45:09.051Z,0.60
2022-09-02T11:48:04.153Z,0.50
2022-09-02T11:53:20.549Z,0.45
2022-09-02T11:55:53.871Z,0.40
2022-09-02T11:58:52.947Z,0.50
2022-09-02T12:01:28.770Z,0.43
2022-09-02T12:04:58.168Z,0.55
2022-09-02T12:07:07.275Z,0.40
2022-09-02T12:10:07.260Z,0.52
2022-09-02T12:12:37.602Z,0.60
2022-09-02T12:15:04.332Z,0.50
2022-09-02T12:18:12.858Z,0.40
2022-09-02T12:20:39.364Z,0.40
2022-09-02T12:23:09.776Z,0.40
2022-09-02T12:25:47.936Z,0.50
2022-09-02T12:28:25.631Z,0.50
2022-09-02T12:30:55.887Z,0.35
2022-09-02T12:33:45.569Z,0.70
2022-09-02T12:36:38.449Z,0.50
2022-09-02T12:39:23.235Z,0.52
2022-09-02T12:42:14.268Z,0.60
2022-09-02T12:45:12.019Z,0.40
2022-09-02T12:47:53.749Z,0.50
2022-09-02T12:50:49.940Z,0.55
2022-09-02T12:56:02.494Z,0.40
2022-09-02T12:58:32.962Z,0.40
2022-09-02T13:01:19.699Z,0.50
2022-09-02T13:04:02.443Z,0.52
2022-09-02T13:06:50.121Z,0.50
2022-09-02T13:09:39.918Z,0.68
2022-09-02T13:12:31.537Z,0.70
2022-09-02T13:15:35.594Z,0.65
2022-09-02T13:18:33.632Z,0.40
2022-09-02T13:21:22.012Z,0.52
2022-09-02T13:23:51.685Z,0.60
2022-09-02T13:26:49.987Z,0.60
2022-09-02T13:29:32.232Z,0.65
2022-09-02T13:32:19.952Z,0.50
2022-09-02T13:34:48.557Z,0.50
2022-09-02T13:37:37.048Z,0.55
2022-09-02T13:40:21.200Z,0.50
2022-09-02T13:42:51.938Z,0.50
2022-09-02T13:45:24.522Z,0.60
2022-09-02T13:48:08.527Z,0.70
2022-09-02T13:50:36.300Z,0.50
2022-09-02T13:55:54.682Z,0.50
2022-09-02T13:58:30.381Z,0.60
2022-09-02T14:03:48.409Z,0.30
2022-09-02T14:06:16.341Z,0.50
2022-09-02T14:08:43.108Z,0.57
2022-09-02T14:11:13.858Z,0.63
2022-09-02T14:13:51.620Z,0.50
2022-09-02T14:16:36.745Z,0.40
2022-09-02T14:19:08.158Z,0.60
2022-09-02T14:21:35.770Z,0.50
2022-09-02T14:24:02.785Z,0.50
2022-09-02T14:26:37.400Z,0.60
2022-09-02T14:29:07.619Z,0.40
2022-09-02T14:31:34.657Z,0.60
2022-09-02T14:34:01.434Z,0.55
2022-09-02T14:36:38.429Z,0.47
2022-09-02T14:39:16.227Z,0.50
2022-09-02T14:41:45.684Z,0.40
2022-09-02T14:44:34.664Z,0.38
2022-09-02T14:47:05.780Z,0.40
2022-09-02T14:49:33.417Z,0.38
2022-09-02T14:52:02.573Z,0.40
2022-09-02T14:54:43.089Z,0.50
2022-09-02T14:57:32.924Z,0.30
2022-09-02T15:00:13.443Z,0.40
2022-09-02T15:02:44.377Z,0.50
2022-09-02T15:05:12.382Z,0.40
2022-09-02T15:07:39.189Z,0.47
2022-09-02T15:10:06.792Z,0.50
2022-09-02T15:12:34.450Z,0.50
2022-09-02T15:15:01.269Z,0.60
2022-09-02T15:17:28.149Z,0.50
2022-09-02T15:19:55.014Z,0.50
2022-09-02T15:22:23.461Z,0.40
2022-09-02T15:24:52.049Z,0.40
2022-09-02T15:27:21.587Z,0.40
2022-09-02T15:29:49.181Z,0.38
2022-09-02T15:32:16.122Z,0.38
2022-09-02T15:34:42.910Z,0.40
2022-09-02T15:37:12.772Z,0.55
2022-09-02T15:39:40.082Z,0.55
2022-09-02T15:42:06.977Z,0.40
2022-09-02T15:44:33.754Z,0.35
2022-09-02T15:47:00.985Z,0.40
2022-09-02T15:49:27.771Z,0.43
2022-09-02T15:51:55.296Z,0.50
2022-09-02T15:54:23.595Z,0.45
2022-09-02T15:56:54.630Z,0.40
2022-09-02T15:59:21.469Z,0.57
2022-09-02T16:01:49.735Z,0.40
2022-09-02T16:04:16.586Z,0.40
2022-09-02T16:06:45.381Z,0.50
2022-09-02T16:09:13.081Z,0.38
2022-09-02T16:11:44.493Z,0.30
2022-09-02T16:14:11.632Z,1.30
2022-09-02T16:16:38.739Z,0.90
2022-09-02T16:19:06.030Z,0.50
2022-09-02T16:21:33.264Z,0.57
2022-09-02T16:24:00.117Z,0.50
2022-09-02T16:26:30.316Z,0.40
2022-09-02T16:28:58.645Z,5.47
2022-09-02T16:31:26.451Z,4.50
2022-09-02T16:33:57.173Z,2.40
2022-09-02T16:36:24.964Z,1.23
2022-09-02T16:38:56.116Z,1.60
2022-09-02T16:41:31.994Z,1.30
2022-09-02T16:43:59.100Z,0.88
2022-09-02T16:46:26.471Z,0.65
2022-09-02T16:48:53.524Z,0.40
2022-09-02T16:51:20.262Z,0.43
2022-09-02T16:53:47.002Z,0.60
2022-09-02T16:56:14.545Z,0.65
2022-09-02T16:58:42.041Z,0.40
2022-09-02T17:01:10.509Z,0.50
2022-09-02T17:03:37.368Z,0.50
2022-09-02T17:06:04.210Z,0.47
2022-09-02T17:08:31.005Z,0.47
2022-09-02T17:11:19.607Z,0.65
2022-09-02T17:13:50.642Z,0.50
2022-09-02T17:16:17.605Z,0.50
2022-09-02T17:18:44.513Z,0.60
2022-09-02T17:21:26.545Z,0.40
2022-09-02T17:23:53.459Z,0.50
2022-09-02T17:26:21.652Z,0.65
2022-09-02T17:28:48.397Z,0.40
2022-09-02T17:31:16.181Z,0.50
2022-09-02T17:33:43.058Z,0.40
2022-09-02T17:36:09.841Z,0.50
2022-09-02T17:38:36.560Z,0.68
2022-09-02T17:41:03.476Z,0.60
2022-09-02T17:43:30.280Z,0.50
2022-09-02T17:46:07.316Z,0.73
2022-09-02T17:48:41.759Z,0.75
2022-09-02T17:51:20.592Z,0.50
2022-09-02T17:53:48.857Z,0.47
2022-09-02T17:56:30.976Z,0.50
2022-09-02T17:59:06.303Z,0.70
2022-09-02T18:01:35.295Z,0.50
2022-09-02T18:04:11.288Z,0.55
2022-09-02T18:06:37.986Z,0.60
2022-09-02T18:09:05.388Z,0.63
2022-09-02T18:11:36.566Z,0.60
2022-09-02T18:14:21.711Z,0.70
2022-09-02T18:17:11.106Z,0.70
2022-09-02T18:19:56.293Z,0.52
2022-09-02T18:22:28.775Z,0.70
2022-09-02T18:25:09.143Z,0.63
2022-09-02T18:27:58.123Z,0.50
2022-09-02T18:30:30.788Z,0.60
2022-09-02T18:33:04.593Z,0.60
2022-09-02T18:35:55.689Z,0.50
2022-09-02T18:38:26.915Z,0.70
2022-09-02T18:41:18.286Z,0.75
2022-09-02T18:43:56.909Z,0.60
2022-09-02T18:46:24.661Z,0.70
2022-09-02T18:48:53.291Z,0.63
2022-09-02T18:51:33.719Z,0.80
2022-09-02T18:54:15.854Z,0.70
2022-09-02T18:56:48.309Z,0.70
2022-09-02T18:59:17.038Z,0.70
2022-09-02T19:01:48.325Z,0.60
2022-09-02T19:04:15.030Z,0.55
2022-09-02T19:06:41.795Z,0.60
2022-09-02T19:09:12.445Z,0.63
2022-09-02T19:11:39.398Z,0.60
2022-09-02T19:14:09.202Z,0.70
2022-09-02T19:16:37.584Z,0.70
2022-09-02T19:19:04.622Z,0.77
2022-09-02T19:21:40.203Z,0.77
2022-09-02T19:24:10.023Z,0.80
2022-09-02T19:26:38.114Z,0.80
2022-09-02T19:29:06.730Z,0.70
2022-09-02T19:31:33.577Z,0.90
2022-09-02T19:34:01.521Z,0.82
2022-09-02T19:36:31.299Z,1.73
2022-09-02T19:38:59.151Z,0.90
2022-09-02T19:41:26.410Z,0.60
2022-09-02T19:43:53.891Z,0.70
2022-09-02T19:46:45.413Z,0.70
2022-09-02T19:49:08.074Z,1.05
2022-09-02T19:51:35.235Z,10.32
2022-09-02T19:54:02.267Z,3.65
2022-09-02T19:56:29.592Z,2.78
2022-09-02T19:58:57.013Z,1.80
2022-09-02T20:01:24.009Z,1.30
2022-09-02T20:03:50.791Z,1.17
2022-09-02T20:06:17.547Z,0.90
2022-09-02T20:08:44.156Z,0.90
2022-09-02T20:11:10.914Z,1.00
2022-09-02T20:13:41.410Z,1.27
2022-09-02T20:16:18.453Z,1.00
2022-09-02T20:18:45.191Z,0.88
2022-09-02T20:21:12.138Z,0.80
2022-09-02T20:23:39.012Z,1.17
2022-09-02T20:26:44.175Z,1.10
2022-09-02T20:29:29.586Z,1.00
2022-09-02T20:32:21.481Z,0.90
2022-09-02T20:34:59.631Z,0.80
2022-09-02T20:37:38.479Z,0.90
2022-09-02T20:40:12.530Z,0.73
2022-09-02T20:42:57.439Z,0.80
2022-09-02T20:45:47.380Z,1.00
2022-09-02T20:48:24.906Z,0.90
2022-09-02T20:51:11.524Z,0.80
2022-09-02T20:53:55.648Z,0.80
2022-09-02T20:56:55.257Z,0.77
2022-09-02T21:02:11.610Z,0.90
2022-09-02T21:04:41.735Z,0.95
2022-09-02T21:07:19.410Z,1.20
2022-09-02T21:10:18.509Z,1.05
2022-09-02T21:12:52.787Z,0.90
2022-09-02T21:15:29.644Z,1.00
2022-09-02T21:18:04.890Z,1.05
2022-09-02T21:20:52.539Z,0.80
2022-09-02T21:23:27.075Z,1.02
2022-09-02T21:26:32.517Z,0.90
2022-09-02T21:29:03.223Z,0.98
2022-09-02T21:31:57.823Z,1.08
2022-09-02T21:34:50.515Z,0.90
2022-09-02T21:37:17.164Z,0.93
2022-09-02T21:39:45.985Z,1.15
2022-09-02T21:42:46.416Z,1.33
2022-09-02T21:45:50.906Z,1.92
2022-09-02T21:48:40.381Z,2.28
2022-09-02T21:51:13.180Z,2.50
2022-09-02T21:53:57.957Z,2.67
2022-09-02T21:56:24.476Z,2.60
2022-09-02T21:59:13.420Z,2.30
2022-09-02T22:01:54.428Z,2.58
2022-09-02T22:04:23.981Z,3.60
2022-09-02T22:06:53.983Z,3.85
2022-09-02T22:09:27.746Z,3.00
2022-09-02T22:12:00.887Z,3.22
2022-09-02T22:14:32.181Z,2.90
2022-09-02T22:17:01.405Z,3.78
2022-09-02T22:19:29.962Z,4.53
2022-09-02T22:22:06.492Z,5.70
2022-09-02T22:24:33.131Z,7.05
2022-09-02T22:27:16.657Z,8.50
2022-09-02T22:30:15.877Z,10.15
2022-09-02T22:32:55.295Z,7.35
2022-09-02T22:35:34.287Z,4.47
2022-09-02T22:38:18.000Z,2.25
2022-09-02T22:40:46.596Z,1.50
2022-09-02T22:43:15.408Z,2.00
2022-09-02T22:45:46.848Z,1.50
2022-09-02T22:48:26.228Z,1.20
2022-09-02T22:50:56.249Z,1.10
2022-09-02T22:53:23.046Z,0.93
2022-09-02T22:56:02.580Z,1.00
2022-09-02T22:59:06.879Z,1.30
2022-09-02T23:01:36.303Z,1.13
2022-09-02T23:04:02.850Z,0.93
2022-09-02T23:06:30.863Z,1.20
2022-09-02T23:08:58.859Z,1.45
2022-09-02T23:11:33.295Z,1.70
2022-09-02T23:14:24.887Z,1.90
2022-09-02T23:17:15.844Z,2.33
2022-09-02T23:19:56.677Z,2.00
2022-09-02T23:22:48.110Z,1.70
2022-09-02T23:25:31.132Z,1.50
2022-09-02T23:28:14.511Z,1.73
2022-09-02T23:30:49.121Z,1.30
2022-09-02T23:33:26.136Z,1.30
2022-09-02T23:35:54.015Z,0.85
2022-09-02T23:38:26.742Z,1.00
2022-09-02T23:41:09.355Z,1.02
2022-09-02T23:43:36.301Z,0.90
2022-09-02T23:46:18.312Z,0.90
2022-09-02T23:48:48.825Z,0.98
2022-09-02T23:51:19.275Z,0.90
2022-09-02T23:54:19.154Z,1.00
2022-09-02T23:56:48.648Z,1.10
2022-09-02T23:59:43.685Z,1.10
